sensor_id;sensor_type;location;lat;lon;timestamp;pressure;altitude;pressure_sealevel;temperature;humidity
24788;BME280;12883;52.662;5.196;2023-07-20T00:02:09;101403.00;;;14.67;100.00
24788;BME280;12883;52.662;5.196;2023-07-20T00:04:34;101433.72;;;14.88;100.00
24788;BME280;12883;52.662;5.196;2023-07-20T00:07:00;101426.75;;;14.88;100.00
24788;BME280;12883;52.662;5.196;2023-07-20T00:09:28;101418.56;;;14.76;100.00
24788;BME280;12883;52.662;5.196;2023-07-20T00:11:53;101425.13;;;14.87;100.00
24788;BME280;12883;52.662;5.196;2023-07-20T00:14:19;101436.81;;;14.85;100.00
24788;BME280;12883;52.662;5.196;2023-07-20T00:16:45;101430.88;;;14.83;100.00
24788;BME280;12883;52.662;5.196;2023-07-20T00:19:12;101378.59;;;14.44;100.00
24788;BME280;12883;52.662;5.196;2023-07-20T00:21:37;101402.41;;;14.58;100.00
24788;BME280;12883;52.662;5.196;2023-07-20T00:24:05;101430.66;;;14.78;100.00
24788;BME280;12883;52.662;5.196;2023-07-20T00:26:31;101430.66;;;14.78;100.00
24788;BME280;12883;52.662;5.196;2023-07-20T00:28:56;101426.16;;;14.79;100.00
24788;BME280;12883;52.662;5.196;2023-07-20T00:31:22;101434.81;;;14.75;100.00
24788;BME280;12883;52.662;5.196;2023-07-20T00:33:47;101434.22;;;14.73;100.00
24788;BME280;12883;52.662;5.196;2023-07-20T00:36:13;101433.56;;;14.71;100.00
24788;BME280;12883;52.662;5.196;2023-07-20T00:38:38;101408.16;;;14.49;100.00
24788;BME280;12883;52.662;5.196;2023-07-20T00:41:04;101440.00;;;14.63;100.00
24788;BME280;12883;52.662;5.196;2023-07-20T00:43:29;101432.63;;;14.59;100.00
24788;BME280;12883;52.662;5.196;2023-07-20T00:45:55;101439.81;;;14.52;100.00
24788;BME280;12883;52.662;5.196;2023-07-20T00:48:21;101425.03;;;14.43;100.00
24788;BME280;12883;52.662;5.196;2023-07-20T00:50:46;101400.00;;;14.18;100.00
24788;BME280;12883;52.662;5.196;2023-07-20T00:53:13;101407.03;;;14.19;100.00
24788;BME280;12883;52.662;5.196;2023-07-20T00:55:39;101446.81;;;14.40;100.00
24788;BME280;12883;52.662;5.196;2023-07-20T00:58:05;101402.03;;;14.16;100.00
24788;BME280;12883;52.662;5.196;2023-07-20T01:00:30;101435.50;;;14.38;100.00
24788;BME280;12883;52.662;5.196;2023-07-20T01:02:56;101440.25;;;14.36;100.00
24788;BME280;12883;52.662;5.196;2023-07-20T01:05:26;101442.13;;;14.35;100.00
24788;BME280;12883;52.662;5.196;2023-07-20T01:08:18;101436.13;;;14.33;100.00
24788;BME280;12883;52.662;5.196;2023-07-20T01:10:59;101440.28;;;14.29;100.00
24788;BME280;12883;52.662;5.196;2023-07-20T01:13:28;101430.63;;;14.22;100.00
24788;BME280;12883;52.662;5.196;2023-07-20T01:15:57;101440.47;;;14.28;100.00
24788;BME280;12883;52.662;5.196;2023-07-20T01:18:25;101440.91;;;14.25;100.00
24788;BME280;12883;52.662;5.196;2023-07-20T01:20:53;101378.28;;;13.88;100.00
24788;BME280;12883;52.662;5.196;2023-07-20T01:29:17;101430.59;;;14.15;100.00
24788;BME280;12883;52.662;5.196;2023-07-20T01:31:51;101338.09;;;13.51;100.00
24788;BME280;12883;52.662;5.196;2023-07-20T01:34:19;101432.03;;;14.11;100.00
24788;BME280;12883;52.662;5.196;2023-07-20T01:36:48;101428.97;;;14.08;100.00
24788;BME280;12883;52.662;5.196;2023-07-20T01:39:16;101435.75;;;14.04;100.00
24788;BME280;12883;52.662;5.196;2023-07-20T01:41:42;101441.69;;;13.99;100.00
24788;BME280;12883;52.662;5.196;2023-07-20T01:44:08;101432.84;;;13.92;100.00
24788;BME280;12883;52.662;5.196;2023-07-20T01:46:33;101427.94;;;13.89;100.00
24788;BME280;12883;52.662;5.196;2023-07-20T01:48:59;101433.28;;;13.83;100.00
24788;BME280;12883;52.662;5.196;2023-07-20T01:51:24;101422.81;;;13.68;100.00
24788;BME280;12883;52.662;5.196;2023-07-20T01:53:49;101444.75;;;13.64;100.00
24788;BME280;12883;52.662;5.196;2023-07-20T01:56:15;101423.22;;;13.59;100.00
24788;BME280;12883;52.662;5.196;2023-07-20T01:58:40;101410.66;;;13.40;100.00
24788;BME280;12883;52.662;5.196;2023-07-20T02:01:05;101435.09;;;13.50;100.00
24788;BME280;12883;52.662;5.196;2023-07-20T02:03:31;101432.22;;;13.45;100.00
24788;BME280;12883;52.662;5.196;2023-07-20T02:05:57;101426.66;;;13.40;100.00
24788;BME280;12883;52.662;5.196;2023-07-20T02:08:22;101395.63;;;13.13;100.00
24788;BME280;12883;52.662;5.196;2023-07-20T02:10:48;101428.47;;;13.26;100.00
24788;BME280;12883;52.662;5.196;2023-07-20T02:13:13;101434.41;;;13.22;100.00
24788;BME280;12883;52.662;5.196;2023-07-20T02:15:39;101430.69;;;13.16;100.00
24788;BME280;12883;52.662;5.196;2023-07-20T02:18:05;101436.03;;;13.10;100.00
24788;BME280;12883;52.662;5.196;2023-07-20T02:20:30;101433.53;;;13.08;100.00
24788;BME280;12883;52.662;5.196;2023-07-20T02:22:56;101444.19;;;13.02;100.00
24788;BME280;12883;52.662;5.196;2023-07-20T02:25:21;101434.94;;;12.98;100.00
24788;BME280;12883;52.662;5.196;2023-07-20T02:27:46;101435.09;;;12.90;100.00
24788;BME280;12883;52.662;5.196;2023-07-20T02:30:12;101432.19;;;12.85;100.00
24788;BME280;12883;52.662;5.196;2023-07-20T02:32:38;101442.03;;;12.84;100.00
24788;BME280;12883;52.662;5.196;2023-07-20T02:35:04;101460.50;;;12.86;100.00
24788;BME280;12883;52.662;5.196;2023-07-20T02:37:29;101431.50;;;12.70;100.00
24788;BME280;12883;52.662;5.196;2023-07-20T02:39:55;101448.59;;;12.82;100.00
24788;BME280;12883;52.662;5.196;2023-07-20T02:42:20;101451.41;;;12.74;100.00
24788;BME280;12883;52.662;5.196;2023-07-20T02:44:48;101445.84;;;12.69;100.00
24788;BME280;12883;52.662;5.196;2023-07-20T02:47:13;101451.19;;;12.69;100.00
24788;BME280;12883;52.662;5.196;2023-07-20T02:49:38;101454.69;;;12.69;100.00
24788;BME280;12883;52.662;5.196;2023-07-20T02:52:04;101450.75;;;12.65;100.00
24788;BME280;12883;52.662;5.196;2023-07-20T02:54:30;101463.09;;;12.73;100.00
24788;BME280;12883;52.662;5.196;2023-07-20T02:56:55;101458.75;;;12.72;100.00
24788;BME280;12883;52.662;5.196;2023-07-20T02:59:21;101409.84;;;12.39;100.00
24788;BME280;12883;52.662;5.196;2023-07-20T03:01:46;101423.16;;;12.39;100.00
24788;BME280;12883;52.662;5.196;2023-07-20T03:04:12;101465.69;;;12.60;100.00
24788;BME280;12883;52.662;5.196;2023-07-20T03:06:37;101456.34;;;12.43;100.00
24788;BME280;12883;52.662;5.196;2023-07-20T03:09:03;101470.34;;;12.58;100.00
24788;BME280;12883;52.662;5.196;2023-07-20T03:11:32;101467.06;;;12.56;100.00
24788;BME280;12883;52.662;5.196;2023-07-20T03:13:57;101473.41;;;12.55;100.00
24788;BME280;12883;52.662;5.196;2023-07-20T03:16:23;101477.09;;;12.54;100.00
24788;BME280;12883;52.662;5.196;2023-07-20T03:18:48;101476.69;;;12.57;100.00
24788;BME280;12883;52.662;5.196;2023-07-20T03:21:14;101467.66;;;12.51;100.00
24788;BME280;12883;52.662;5.196;2023-07-20T03:23:40;101475.31;;;12.61;100.00
24788;BME280;12883;52.662;5.196;2023-07-20T03:26:06;101481.22;;;12.56;100.00
24788;BME280;12883;52.662;5.196;2023-07-20T03:28:33;101481.22;;;12.56;100.00
24788;BME280;12883;52.662;5.196;2023-07-20T03:30:59;101481.22;;;12.56;100.00
24788;BME280;12883;52.662;5.196;2023-07-20T03:33:31;101489.00;;;12.58;100.00
24788;BME280;12883;52.662;5.196;2023-07-20T03:35:57;101494.72;;;12.55;100.00
24788;BME280;12883;52.662;5.196;2023-07-20T03:38:23;101417.41;;;12.08;100.00
24788;BME280;12883;52.662;5.196;2023-07-20T03:40:53;101468.00;;;12.42;100.00
24788;BME280;12883;52.662;5.196;2023-07-20T03:43:20;101453.38;;;12.25;100.00
24788;BME280;12883;52.662;5.196;2023-07-20T03:45:45;101477.84;;;12.41;100.00
24788;BME280;12883;52.662;5.196;2023-07-20T03:48:13;101493.41;;;12.44;100.00
24788;BME280;12883;52.662;5.196;2023-07-20T03:50:38;101483.94;;;12.35;100.00
24788;BME280;12883;52.662;5.196;2023-07-20T03:53:04;101488.69;;;12.40;100.00
24788;BME280;12883;52.662;5.196;2023-07-20T03:55:29;101496.16;;;12.30;100.00
24788;BME280;12883;52.662;5.196;2023-07-20T03:57:54;101498.06;;;12.36;100.00
24788;BME280;12883;52.662;5.196;2023-07-20T04:00:20;101437.38;;;11.97;100.00
24788;BME280;12883;52.662;5.196;2023-07-20T04:02:45;101492.13;;;12.34;100.00
24788;BME280;12883;52.662;5.196;2023-07-20T04:05:11;101497.44;;;12.34;100.00
24788;BME280;12883;52.662;5.196;2023-07-20T04:07:36;101503.59;;;12.34;100.00
24788;BME280;12883;52.662;5.196;2023-07-20T04:10:02;101498.72;;;12.38;100.00
24788;BME280;12883;52.662;5.196;2023-07-20T04:12:27;101504.84;;;12.38;100.00
24788;BME280;12883;52.662;5.196;2023-07-20T04:14:52;101488.84;;;12.32;100.00
24788;BME280;12883;52.662;5.196;2023-07-20T04:17:18;101498.13;;;12.42;100.00
24788;BME280;12883;52.662;5.196;2023-07-20T04:19:43;101506.53;;;12.46;100.00
24788;BME280;12883;52.662;5.196;2023-07-20T04:22:09;101484.91;;;12.28;100.00
24788;BME280;12883;52.662;5.196;2023-07-20T04:24:34;101486.59;;;12.35;100.00
24788;BME280;12883;52.662;5.196;2023-07-20T04:27:00;101504.25;;;12.43;100.00
24788;BME280;12883;52.662;5.196;2023-07-20T04:29:25;101497.91;;;12.44;100.00
24788;BME280;12883;52.662;5.196;2023-07-20T04:31:50;101482.75;;;12.38;100.00
24788;BME280;12883;52.662;5.196;2023-07-20T04:34:16;101502.25;;;12.45;100.00
24788;BME280;12883;52.662;5.196;2023-07-20T04:36:41;101504.03;;;12.38;100.00
24788;BME280;12883;52.662;5.196;2023-07-20T04:39:06;101503.63;;;12.41;100.00
24788;BME280;12883;52.662;5.196;2023-07-20T04:41:33;101503.72;;;12.54;100.00
24788;BME280;12883;52.662;5.196;2023-07-20T04:43:58;101492.66;;;12.57;100.00
24788;BME280;12883;52.662;5.196;2023-07-20T04:46:24;101512.22;;;12.70;100.00
24788;BME280;12883;52.662;5.196;2023-07-20T04:48:49;101514.91;;;12.77;100.00
24788;BME280;12883;52.662;5.196;2023-07-20T04:51:14;101512.91;;;12.79;100.00
24788;BME280;12883;52.662;5.196;2023-07-20T04:53:42;101511.66;;;12.81;100.00
24788;BME280;12883;52.662;5.196;2023-07-20T04:56:08;101512.09;;;12.85;100.00
24788;BME280;12883;52.662;5.196;2023-07-20T04:58:33;101506.59;;;12.86;100.00
24788;BME280;12883;52.662;5.196;2023-07-20T05:00:58;101520.84;;;13.00;100.00
24788;BME280;12883;52.662;5.196;2023-07-20T05:03:23;101524.75;;;13.04;100.00
24788;BME280;12883;52.662;5.196;2023-07-20T05:05:49;101515.97;;;13.10;100.00
24788;BME280;12883;52.662;5.196;2023-07-20T05:08:15;101514.16;;;13.17;100.00
24788;BME280;12883;52.662;5.196;2023-07-20T05:10:41;101522.38;;;13.22;100.00
24788;BME280;12883;52.662;5.196;2023-07-20T05:13:06;101512.31;;;13.24;100.00
24788;BME280;12883;52.662;5.196;2023-07-20T05:15:33;101465.50;;;13.02;100.00
24788;BME280;12883;52.662;5.196;2023-07-20T05:17:59;101524.50;;;13.39;100.00
24788;BME280;12883;52.662;5.196;2023-07-20T05:20:25;101534.97;;;13.54;100.00
24788;BME280;12883;52.662;5.196;2023-07-20T05:22:50;101505.03;;;13.45;100.00
24788;BME280;12883;52.662;5.196;2023-07-20T05:25:17;101468.88;;;13.36;100.00
24788;BME280;12883;52.662;5.196;2023-07-20T05:27:44;101495.22;;;13.59;100.00
24788;BME280;12883;52.662;5.196;2023-07-20T05:30:09;101526.25;;;13.92;100.00
24788;BME280;12883;52.662;5.196;2023-07-20T05:32:35;101484.19;;;13.81;100.00
24788;BME280;12883;52.662;5.196;2023-07-20T05:35:01;101526.69;;;14.15;100.00
24788;BME280;12883;52.662;5.196;2023-07-20T05:37:26;101527.72;;;14.27;100.00
24788;BME280;12883;52.662;5.196;2023-07-20T05:39:51;101532.28;;;14.40;100.00
24788;BME280;12883;52.662;5.196;2023-07-20T05:42:17;101536.97;;;14.51;100.00
24788;BME280;12883;52.662;5.196;2023-07-20T05:44:42;101534.50;;;14.69;100.00
24788;BME280;12883;52.662;5.196;2023-07-20T05:47:08;101530.56;;;14.77;100.00
24788;BME280;12883;52.662;5.196;2023-07-20T05:49:34;101531.78;;;14.94;100.00
24788;BME280;12883;52.662;5.196;2023-07-20T05:51:59;101538.28;;;15.11;100.00
24788;BME280;12883;52.662;5.196;2023-07-20T05:54:26;101529.81;;;15.21;100.00
24788;BME280;12883;52.662;5.196;2023-07-20T05:56:51;101525.69;;;15.31;100.00
24788;BME280;12883;52.662;5.196;2023-07-20T05:59:17;101527.28;;;15.45;100.00
24788;BME280;12883;52.662;5.196;2023-07-20T06:01:43;101532.56;;;15.58;100.00
24788;BME280;12883;52.662;5.196;2023-07-20T06:04:09;101529.81;;;15.71;100.00
24788;BME280;12883;52.662;5.196;2023-07-20T06:06:34;101498.25;;;15.49;100.00
24788;BME280;12883;52.662;5.196;2023-07-20T06:09:00;101524.81;;;15.81;100.00
24788;BME280;12883;52.662;5.196;2023-07-20T06:11:29;101536.69;;;15.92;100.00
24788;BME280;12883;52.662;5.196;2023-07-20T06:13:55;101500.44;;;15.89;100.00
24788;BME280;12883;52.662;5.196;2023-07-20T06:16:20;101497.69;;;16.02;100.00
24788;BME280;12883;52.662;5.196;2023-07-20T06:18:46;101540.03;;;16.43;100.00
24788;BME280;12883;52.662;5.196;2023-07-20T06:21:12;101546.94;;;16.57;100.00
24788;BME280;12883;52.662;5.196;2023-07-20T06:23:37;101543.97;;;16.65;100.00
24788;BME280;12883;52.662;5.196;2023-07-20T06:26:02;101535.03;;;16.71;100.00
24788;BME280;12883;52.662;5.196;2023-07-20T06:28:28;101532.88;;;16.79;100.00
24788;BME280;12883;52.662;5.196;2023-07-20T06:31:01;101494.16;;;16.75;100.00
24788;BME280;12883;52.662;5.196;2023-07-20T06:33:26;101540.72;;;16.99;100.00
24788;BME280;12883;52.662;5.196;2023-07-20T06:35:52;101557.41;;;17.01;100.00
24788;BME280;12883;52.662;5.196;2023-07-20T06:38:18;101544.06;;;17.30;100.00
24788;BME280;12883;52.662;5.196;2023-07-20T06:40:46;101552.69;;;17.32;100.00
24788;BME280;12883;52.662;5.196;2023-07-20T06:43:11;101553.16;;;17.29;100.00
24788;BME280;12883;52.662;5.196;2023-07-20T06:45:36;101546.88;;;17.53;100.00
24788;BME280;12883;52.662;5.196;2023-07-20T06:48:02;101547.34;;;17.32;100.00
24788;BME280;12883;52.662;5.196;2023-07-20T06:50:27;101558.63;;;17.41;100.00
24788;BME280;12883;52.662;5.196;2023-07-20T06:52:53;101571.03;;;17.53;100.00
24788;BME280;12883;52.662;5.196;2023-07-20T06:55:18;101563.72;;;17.60;100.00
24788;BME280;12883;52.662;5.196;2023-07-20T06:57:43;101560.31;;;17.53;100.00
24788;BME280;12883;52.662;5.196;2023-07-20T07:00:09;101570.41;;;17.69;100.00
24788;BME280;12883;52.662;5.196;2023-07-20T07:02:35;101563.03;;;17.94;100.00
24788;BME280;12883;52.662;5.196;2023-07-20T07:05:00;101557.78;;;17.88;100.00
24788;BME280;12883;52.662;5.196;2023-07-20T07:07:26;101573.34;;;17.68;100.00
24788;BME280;12883;52.662;5.196;2023-07-20T07:09:52;101571.88;;;17.83;100.00
24788;BME280;12883;52.662;5.196;2023-07-20T07:12:17;101573.06;;;17.87;100.00
24788;BME280;12883;52.662;5.196;2023-07-20T07:14:42;101579.16;;;17.94;100.00
24788;BME280;12883;52.662;5.196;2023-07-20T07:17:08;101587.31;;;17.88;100.00
24788;BME280;12883;52.662;5.196;2023-07-20T07:19:33;101598.47;;;18.03;100.00
24788;BME280;12883;52.662;5.196;2023-07-20T07:21:59;101598.47;;;18.03;100.00
24788;BME280;12883;52.662;5.196;2023-07-20T07:24:24;101602.91;;;17.97;100.00
24788;BME280;12883;52.662;5.196;2023-07-20T07:26:49;101594.97;;;18.14;100.00
24788;BME280;12883;52.662;5.196;2023-07-20T07:29:15;101593.00;;;18.21;100.00
24788;BME280;12883;52.662;5.196;2023-07-20T07:31:40;101596.53;;;18.21;100.00
24788;BME280;12883;52.662;5.196;2023-07-20T07:34:05;101588.13;;;18.29;100.00
24788;BME280;12883;52.662;5.196;2023-07-20T07:36:32;101586.06;;;18.31;100.00
24788;BME280;12883;52.662;5.196;2023-07-20T07:38:58;101598.47;;;18.32;100.00
24788;BME280;12883;52.662;5.196;2023-07-20T07:41:23;101566.41;;;18.19;100.00
24788;BME280;12883;52.662;5.196;2023-07-20T07:43:49;101605.69;;;18.32;100.00
24788;BME280;12883;52.662;5.196;2023-07-20T07:46:14;101599.91;;;18.69;100.00
24788;BME280;12883;52.662;5.196;2023-07-20T07:48:40;101595.00;;;18.66;100.00
24788;BME280;12883;52.662;5.196;2023-07-20T07:51:05;101593.84;;;18.74;100.00
24788;BME280;12883;52.662;5.196;2023-07-20T07:53:31;101610.91;;;18.56;100.00
24788;BME280;12883;52.662;5.196;2023-07-20T07:55:57;101594.06;;;18.61;100.00
24788;BME280;12883;52.662;5.196;2023-07-20T07:58:23;101601.34;;;18.83;100.00
24788;BME280;12883;52.662;5.196;2023-07-20T08:00:48;101617.25;;;18.96;100.00
24788;BME280;12883;52.662;5.196;2023-07-20T08:03:14;101602.72;;;18.97;100.00
24788;BME280;12883;52.662;5.196;2023-07-20T08:05:39;101605.31;;;18.81;100.00
24788;BME280;12883;52.662;5.196;2023-07-20T08:08:05;101604.25;;;18.59;100.00
24788;BME280;12883;52.662;5.196;2023-07-20T08:10:30;101606.31;;;18.45;100.00
24788;BME280;12883;52.662;5.196;2023-07-20T08:12:56;101623.41;;;18.21;100.00
24788;BME280;12883;52.662;5.196;2023-07-20T08:15:22;101610.16;;;18.08;100.00
24788;BME280;12883;52.662;5.196;2023-07-20T08:17:47;101618.06;;;18.03;100.00
24788;BME280;12883;52.662;5.196;2023-07-20T08:20:14;101599.34;;;17.85;100.00
24788;BME280;12883;52.662;5.196;2023-07-20T08:22:41;101613.03;;;17.95;100.00
24788;BME280;12883;52.662;5.196;2023-07-20T08:25:06;101610.16;;;17.79;100.00
24788;BME280;12883;52.662;5.196;2023-07-20T08:27:32;101604.56;;;17.80;100.00
24788;BME280;12883;52.662;5.196;2023-07-20T08:29:57;101602.63;;;17.69;100.00
24788;BME280;12883;52.662;5.196;2023-07-20T08:32:23;101595.09;;;17.78;100.00
24788;BME280;12883;52.662;5.196;2023-07-20T08:34:48;101605.47;;;17.74;100.00
24788;BME280;12883;52.662;5.196;2023-07-20T08:37:13;101595.66;;;17.80;100.00
24788;BME280;12883;52.662;5.196;2023-07-20T08:39:39;101610.66;;;17.87;100.00
24788;BME280;12883;52.662;5.196;2023-07-20T08:42:05;101601.50;;;17.77;100.00
24788;BME280;12883;52.662;5.196;2023-07-20T08:44:35;101613.75;;;18.02;100.00
24788;BME280;12883;52.662;5.196;2023-07-20T08:47:02;101611.31;;;18.01;100.00
24788;BME280;12883;52.662;5.196;2023-07-20T08:49:30;101602.59;;;17.87;100.00
24788;BME280;12883;52.662;5.196;2023-07-20T08:51:57;101610.34;;;17.95;100.00
24788;BME280;12883;52.662;5.196;2023-07-20T08:54:23;101609.75;;;17.93;100.00
24788;BME280;12883;52.662;5.196;2023-07-20T08:56:49;101627.06;;;17.97;100.00
24788;BME280;12883;52.662;5.196;2023-07-20T08:59:17;101627.66;;;17.99;100.00
24788;BME280;12883;52.662;5.196;2023-07-20T09:01:43;101602.16;;;17.90;100.00
24788;BME280;12883;52.662;5.196;2023-07-20T09:04:10;101590.81;;;17.88;100.00
24788;BME280;12883;52.662;5.196;2023-07-20T09:06:36;101602.28;;;17.95;100.00
24788;BME280;12883;52.662;5.196;2023-07-20T09:09:02;101615.97;;;18.35;100.00
24788;BME280;12883;52.662;5.196;2023-07-20T09:11:27;101625.97;;;18.28;100.00
24788;BME280;12883;52.662;5.196;2023-07-20T09:14:08;101623.41;;;18.21;100.00
24788;BME280;12883;52.662;5.196;2023-07-20T09:16:55;101627.28;;;18.25;100.00
24788;BME280;12883;52.662;5.196;2023-07-20T09:19:21;101598.16;;;18.22;100.00
24788;BME280;12883;52.662;5.196;2023-07-20T09:21:48;101610.66;;;18.17;100.00
24788;BME280;12883;52.662;5.196;2023-07-20T09:24:15;101634.66;;;18.30;100.00
24788;BME280;12883;52.662;5.196;2023-07-20T09:26:41;101634.56;;;18.36;100.00
24788;BME280;12883;52.662;5.196;2023-07-20T09:29:08;101629.19;;;18.36;100.00
24788;BME280;12883;52.662;5.196;2023-07-20T09:31:37;101615.69;;;18.13;100.00
24788;BME280;12883;52.662;5.196;2023-07-20T09:34:04;101641.25;;;18.45;100.00
24788;BME280;12883;52.662;5.196;2023-07-20T09:36:33;101564.97;;;18.05;100.00
24788;BME280;12883;52.662;5.196;2023-07-20T09:38:59;101623.25;;;18.34;100.00
24788;BME280;12883;52.662;5.196;2023-07-20T09:41:24;101615.09;;;18.52;100.00
24788;BME280;12883;52.662;5.196;2023-07-20T09:43:50;101626.44;;;18.43;100.00
24788;BME280;12883;52.662;5.196;2023-07-20T09:46:16;101585.56;;;18.23;100.00
24788;BME280;12883;52.662;5.196;2023-07-20T09:48:51;101609.00;;;18.45;100.00
24788;BME280;12883;52.662;5.196;2023-07-20T09:51:17;101626.06;;;18.39;100.00
24788;BME280;12883;52.662;5.196;2023-07-20T09:53:43;101612.72;;;18.44;100.00
24788;BME280;12883;52.662;5.196;2023-07-20T09:56:10;101613.94;;;18.48;100.00
24788;BME280;12883;52.662;5.196;2023-07-20T09:58:37;101611.69;;;18.45;100.00
24788;BME280;12883;52.662;5.196;2023-07-20T10:01:06;101618.25;;;18.49;100.00
24788;BME280;12883;52.662;5.196;2023-07-20T10:03:34;101608.63;;;18.42;100.00
24788;BME280;12883;52.662;5.196;2023-07-20T10:06:06;101606.66;;;18.37;100.00
24788;BME280;12883;52.662;5.196;2023-07-20T10:08:33;101612.38;;;18.41;100.00
24788;BME280;12883;52.662;5.196;2023-07-20T10:11:02;101621.50;;;18.40;100.00
24788;BME280;12883;52.662;5.196;2023-07-20T10:13:29;101624.75;;;18.30;100.00
24788;BME280;12883;52.662;5.196;2023-07-20T10:15:59;101607.66;;;18.25;100.00
24788;BME280;12883;52.662;5.196;2023-07-20T10:18:46;101614.22;;;18.29;100.00
24788;BME280;12883;52.662;5.196;2023-07-20T10:21:17;101614.94;;;18.06;100.00
24788;BME280;12883;52.662;5.196;2023-07-20T10:23:42;101617.50;;;18.01;100.00
24788;BME280;12883;52.662;5.196;2023-07-20T10:26:08;101582.81;;;17.70;100.00
24788;BME280;12883;52.662;5.196;2023-07-20T10:28:36;101546.53;;;17.50;100.00
24788;BME280;12883;52.662;5.196;2023-07-20T10:31:02;101596.31;;;17.93;100.00
24788;BME280;12883;52.662;5.196;2023-07-20T10:33:27;101599.09;;;17.87;100.00
24788;BME280;12883;52.662;5.196;2023-07-20T10:36:00;101594.69;;;17.92;100.00
24788;BME280;12883;52.662;5.196;2023-07-20T10:43:45;101594.72;;;17.74;100.00
24788;BME280;12883;52.662;5.196;2023-07-20T10:46:11;101607.88;;;17.64;100.00
24788;BME280;12883;52.662;5.196;2023-07-20T10:49:03;101598.47;;;17.55;100.00
24788;BME280;12883;52.662;5.196;2023-07-20T10:51:30;101597.81;;;17.60;100.00
24788;BME280;12883;52.662;5.196;2023-07-20T10:54:01;101594.88;;;17.61;100.00
24788;BME280;12883;52.662;5.196;2023-07-20T10:56:27;101595.03;;;17.66;100.00
24788;BME280;12883;52.662;5.196;2023-07-20T10:58:59;101583.41;;;17.54;100.00
24788;BME280;12883;52.662;5.196;2023-07-20T11:01:29;101588.56;;;17.56;100.00
24788;BME280;12883;52.662;5.196;2023-07-20T11:03:57;101597.00;;;17.59;100.00
24788;BME280;12883;52.662;5.196;2023-07-20T11:08:49;101608.03;;;17.51;100.00
24788;BME280;12883;52.662;5.196;2023-07-20T11:11:27;101591.41;;;17.61;100.00
24788;BME280;12883;52.662;5.196;2023-07-20T11:14:00;101593.34;;;17.83;100.00
24788;BME280;12883;52.662;5.196;2023-07-20T11:16:42;101587.72;;;17.73;100.00
24788;BME280;12883;52.662;5.196;2023-07-20T11:19:25;101591.31;;;17.67;100.00
24788;BME280;12883;52.662;5.196;2023-07-20T11:21:54;101585.44;;;17.88;100.00
24788;BME280;12883;52.662;5.196;2023-07-20T11:24:20;101584.59;;;18.17;100.00
24788;BME280;12883;52.662;5.196;2023-07-20T11:26:50;101585.00;;;17.91;100.00
24788;BME280;12883;52.662;5.196;2023-07-20T11:29:17;101545.16;;;17.59;100.00
24788;BME280;12883;52.662;5.196;2023-07-20T11:31:44;101595.09;;;17.78;100.00
24788;BME280;12883;52.662;5.196;2023-07-20T11:34:20;101585.13;;;17.96;100.00
24788;BME280;12883;52.662;5.196;2023-07-20T11:36:50;101539.66;;;17.83;100.00
24788;BME280;12883;52.662;5.196;2023-07-20T11:39:20;101569.06;;;18.08;100.00
24788;BME280;12883;52.662;5.196;2023-07-20T11:41:51;101567.41;;;18.07;100.00
24788;BME280;12883;52.662;5.196;2023-07-20T11:44:17;101567.38;;;17.95;100.00
24788;BME280;12883;52.662;5.196;2023-07-20T11:46:44;101573.59;;;18.07;100.00
24788;BME280;12883;52.662;5.196;2023-07-20T11:49:10;101529.41;;;17.92;100.00
24788;BME280;12883;52.662;5.196;2023-07-20T11:51:36;101548.75;;;18.23;100.00
24788;BME280;12883;52.662;5.196;2023-07-20T11:54:04;101541.22;;;18.43;100.00
24788;BME280;12883;52.662;5.196;2023-07-20T11:56:30;101531.13;;;18.27;100.00
24788;BME280;12883;52.662;5.196;2023-07-20T11:58:58;101555.22;;;18.45;100.00
24788;BME280;12883;52.662;5.196;2023-07-20T12:01:26;101565.78;;;18.58;100.00
24788;BME280;12883;52.662;5.196;2023-07-20T12:03:59;101565.75;;;19.04;100.00
24788;BME280;12883;52.662;5.196;2023-07-20T12:06:25;101556.25;;;19.13;100.00
24788;BME280;12883;52.662;5.196;2023-07-20T12:08:54;101548.66;;;19.33;100.00
24788;BME280;12883;52.662;5.196;2023-07-20T12:11:39;101564.91;;;19.38;100.00
24788;BME280;12883;52.662;5.196;2023-07-20T12:14:08;101563.06;;;19.27;100.00
24788;BME280;12883;52.662;5.196;2023-07-20T12:16:36;101557.97;;;19.42;100.00
24788;BME280;12883;52.662;5.196;2023-07-20T12:19:13;101525.63;;;19.26;100.00
24788;BME280;12883;52.662;5.196;2023-07-20T12:21:40;101565.03;;;19.43;100.00
24788;BME280;12883;52.662;5.196;2023-07-20T12:24:08;101570.09;;;19.68;100.00
24788;BME280;12883;52.662;5.196;2023-07-20T12:26:37;101534.31;;;19.56;100.00
24788;BME280;12883;52.662;5.196;2023-07-20T12:29:03;101567.13;;;19.97;100.00
24788;BME280;12883;52.662;5.196;2023-07-20T12:31:29;101573.13;;;19.71;100.00
24788;BME280;12883;52.662;5.196;2023-07-20T12:33:56;101569.75;;;19.64;100.00
24788;BME280;12883;52.662;5.196;2023-07-20T12:36:22;101586.31;;;19.73;100.00
24788;BME280;12883;52.662;5.196;2023-07-20T12:38:48;101559.72;;;19.76;100.00
24788;BME280;12883;52.662;5.196;2023-07-20T12:41:13;101568.31;;;19.73;100.00
24788;BME280;12883;52.662;5.196;2023-07-20T12:43:42;101574.69;;;19.84;100.00
24788;BME280;12883;52.662;5.196;2023-07-20T12:46:08;101563.41;;;19.98;100.00
24788;BME280;12883;52.662;5.196;2023-07-20T12:48:35;101566.94;;;19.87;100.00
24788;BME280;12883;52.662;5.196;2023-07-20T12:51:02;101557.25;;;19.86;100.00
24788;BME280;12883;52.662;5.196;2023-07-20T12:53:28;101575.56;;;19.73;100.00